sensor_id;sensor_type;location;lat;lon;timestamp;temperature;humidity
28336;DHT22;15592;53.656;7.276;2024-01-11T00:01:25;-3.50;99.90
28336;DHT22;15592;53.656;7.276;2024-01-11T00:03:51;-3.50;99.90
28336;DHT22;15592;53.656;7.276;2024-01-11T00:06:16;-3.50;99.90
28336;DHT22;15592;53.656;7.276;2024-01-11T00:08:42;-3.50;99.90
28336;DHT22;15592;53.656;7.276;2024-01-11T00:11:07;-3.40;99.90
28336;DHT22;15592;53.656;7.276;2024-01-11T00:13:33;-3.30;99.90
28336;DHT22;15592;53.656;7.276;2024-01-11T00:15:58;-3.30;99.90
28336;DHT22;15592;53.656;7.276;2024-01-11T00:18:24;-3.20;99.90
28336;DHT22;15592;53.656;7.276;2024-01-11T00:20:50;-3.10;99.90
28336;DHT22;15592;53.656;7.276;2024-01-11T00:23:15;-3.10;99.90
28336;DHT22;15592;53.656;7.276;2024-01-11T00:25:41;-3.10;99.90
28336;DHT22;15592;53.656;7.276;2024-01-11T00:28:06;-3.00;99.90
28336;DHT22;15592;53.656;7.276;2024-01-11T00:30:32;-2.90;99.90
28336;DHT22;15592;53.656;7.276;2024-01-11T00:32:57;-2.90;99.90
28336;DHT22;15592;53.656;7.276;2024-01-11T00:35:23;-2.80;99.90
28336;DHT22;15592;53.656;7.276;2024-01-11T00:37:48;-2.90;99.90
28336;DHT22;15592;53.656;7.276;2024-01-11T00:40:14;-2.90;99.90
28336;DHT22;15592;53.656;7.276;2024-01-11T00:42:40;-2.80;99.90
28336;DHT22;15592;53.656;7.276;2024-01-11T00:45:06;-2.80;99.90
28336;DHT22;15592;53.656;7.276;2024-01-11T00:47:31;-2.80;99.90
28336;DHT22;15592;53.656;7.276;2024-01-11T00:49:57;-2.70;99.90
28336;DHT22;15592;53.656;7.276;2024-01-11T00:52:22;-2.70;99.90
28336;DHT22;15592;53.656;7.276;2024-01-11T00:54:48;-2.60;99.90
28336;DHT22;15592;53.656;7.276;2024-01-11T00:57:13;-2.60;99.90
28336;DHT22;15592;53.656;7.276;2024-01-11T00:59:42;-2.60;99.90
28336;DHT22;15592;53.656;7.276;2024-01-11T01:02:08;-2.60;99.90
28336;DHT22;15592;53.656;7.276;2024-01-11T01:04:37;-2.50;99.90
28336;DHT22;15592;53.656;7.276;2024-01-11T01:07:03;-2.50;99.90
28336;DHT22;15592;53.656;7.276;2024-01-11T01:09:29;-2.50;99.90
28336;DHT22;15592;53.656;7.276;2024-01-11T01:11:56;-2.50;99.90
28336;DHT22;15592;53.656;7.276;2024-01-11T01:14:21;-2.50;99.90
28336;DHT22;15592;53.656;7.276;2024-01-11T01:16:47;-2.40;99.90
28336;DHT22;15592;53.656;7.276;2024-01-11T01:19:12;-2.40;99.90
28336;DHT22;15592;53.656;7.276;2024-01-11T01:21:38;-2.40;99.90
28336;DHT22;15592;53.656;7.276;2024-01-11T01:24:03;-2.40;99.90
28336;DHT22;15592;53.656;7.276;2024-01-11T01:26:29;-2.40;99.90
28336;DHT22;15592;53.656;7.276;2024-01-11T01:28:55;-2.30;99.90
28336;DHT22;15592;53.656;7.276;2024-01-11T01:31:21;-2.30;99.90
28336;DHT22;15592;53.656;7.276;2024-01-11T01:33:47;-2.30;99.90
28336;DHT22;15592;53.656;7.276;2024-01-11T01:36:12;-2.20;99.90
28336;DHT22;15592;53.656;7.276;2024-01-11T01:38:38;-2.10;99.90
28336;DHT22;15592;53.656;7.276;2024-01-11T01:41:03;-2.00;99.90
28336;DHT22;15592;53.656;7.276;2024-01-11T01:43:29;-2.00;99.90
28336;DHT22;15592;53.656;7.276;2024-01-11T01:45:55;-2.00;99.90
28336;DHT22;15592;53.656;7.276;2024-01-11T01:48:21;-1.90;99.90
28336;DHT22;15592;53.656;7.276;2024-01-11T01:50:47;-1.90;99.90
28336;DHT22;15592;53.656;7.276;2024-01-11T01:53:21;-1.80;99.90
28336;DHT22;15592;53.656;7.276;2024-01-11T01:55:47;-1.80;99.90
28336;DHT22;15592;53.656;7.276;2024-01-11T01:58:14;-1.80;99.90
28336;DHT22;15592;53.656;7.276;2024-01-11T02:00:41;-1.80;99.90
28336;DHT22;15592;53.656;7.276;2024-01-11T02:03:08;-1.80;99.90
28336;DHT22;15592;53.656;7.276;2024-01-11T02:05:34;-1.70;99.90
28336;DHT22;15592;53.656;7.276;2024-01-11T02:08:03;-1.70;99.90
28336;DHT22;15592;53.656;7.276;2024-01-11T02:10:34;-1.70;99.90
28336;DHT22;15592;53.656;7.276;2024-01-11T02:13:01;-1.70;99.90
28336;DHT22;15592;53.656;7.276;2024-01-11T02:15:26;-1.70;99.90
28336;DHT22;15592;53.656;7.276;2024-01-11T02:17:52;-1.70;99.90
28336;DHT22;15592;53.656;7.276;2024-01-11T02:20:17;-1.60;99.90
28336;DHT22;15592;53.656;7.276;2024-01-11T02:22:47;-1.60;99.90
28336;DHT22;15592;53.656;7.276;2024-01-11T02:25:15;-1.60;99.90
28336;DHT22;15592;53.656;7.276;2024-01-11T02:27:48;-1.60;99.90
28336;DHT22;15592;53.656;7.276;2024-01-11T02:30:15;-1.50;99.90
28336;DHT22;15592;53.656;7.276;2024-01-11T02:32:43;-1.50;99.90
28336;DHT22;15592;53.656;7.276;2024-01-11T02:35:10;-1.50;99.90
28336;DHT22;15592;53.656;7.276;2024-01-11T02:37:36;-1.50;99.90
28336;DHT22;15592;53.656;7.276;2024-01-11T02:40:03;-1.50;99.90
28336;DHT22;15592;53.656;7.276;2024-01-11T02:42:29;-1.50;99.90
28336;DHT22;15592;53.656;7.276;2024-01-11T02:44:54;-1.50;99.90
28336;DHT22;15592;53.656;7.276;2024-01-11T02:47:20;-1.50;99.90
28336;DHT22;15592;53.656;7.276;2024-01-11T02:49:45;-1.50;99.90
28336;DHT22;15592;53.656;7.276;2024-01-11T02:52:11;-1.50;99.90
28336;DHT22;15592;53.656;7.276;2024-01-11T02:54:36;-1.50;99.90
28336;DHT22;15592;53.656;7.276;2024-01-11T02:57:02;-1.50;99.90
28336;DHT22;15592;53.656;7.276;2024-01-11T02:59:28;-1.50;99.90
28336;DHT22;15592;53.656;7.276;2024-01-11T03:01:53;-1.40;99.90
28336;DHT22;15592;53.656;7.276;2024-01-11T03:04:19;-1.40;99.90
28336;DHT22;15592;53.656;7.276;2024-01-11T03:06:45;-1.40;99.90
28336;DHT22;15592;53.656;7.276;2024-01-11T03:09:10;-1.40;99.90
28336;DHT22;15592;53.656;7.276;2024-01-11T03:11:36;-1.40;99.90
28336;DHT22;15592;53.656;7.276;2024-01-11T03:14:03;-1.40;99.90
28336;DHT22;15592;53.656;7.276;2024-01-11T03:16:28;-1.40;99.90
28336;DHT22;15592;53.656;7.276;2024-01-11T03:18:54;-1.40;99.90
28336;DHT22;15592;53.656;7.276;2024-01-11T03:21:19;-1.40;99.90
28336;DHT22;15592;53.656;7.276;2024-01-11T03:23:45;-1.30;99.90
28336;DHT22;15592;53.656;7.276;2024-01-11T03:26:17;-1.40;99.90
28336;DHT22;15592;53.656;7.276;2024-01-11T03:28:43;-1.30;99.90
28336;DHT22;15592;53.656;7.276;2024-01-11T03:31:10;-1.30;99.90
28336;DHT22;15592;53.656;7.276;2024-01-11T03:33:36;-1.30;99.90
28336;DHT22;15592;53.656;7.276;2024-01-11T03:36:11;-1.30;99.90
28336;DHT22;15592;53.656;7.276;2024-01-11T03:38:37;-1.30;99.90
28336;DHT22;15592;53.656;7.276;2024-01-11T03:41:12;-1.30;99.90
28336;DHT22;15592;53.656;7.276;2024-01-11T03:43:38;-1.30;99.90
28336;DHT22;15592;53.656;7.276;2024-01-11T03:46:04;-1.30;99.90
28336;DHT22;15592;53.656;7.276;2024-01-11T03:48:30;-1.30;99.90
28336;DHT22;15592;53.656;7.276;2024-01-11T03:50:56;-1.30;99.90
28336;DHT22;15592;53.656;7.276;2024-01-11T03:53:21;-1.20;99.90
28336;DHT22;15592;53.656;7.276;2024-01-11T03:55:47;-1.20;99.90
28336;DHT22;15592;53.656;7.276;2024-01-11T03:58:12;-1.20;99.90
28336;DHT22;15592;53.656;7.276;2024-01-11T04:00:38;-1.20;99.90
28336;DHT22;15592;53.656;7.276;2024-01-11T04:03:05;-1.20;99.90
28336;DHT22;15592;53.656;7.276;2024-01-11T04:05:31;-1.20;99.90
28336;DHT22;15592;53.656;7.276;2024-01-11T04:07:56;-1.10;99.90
28336;DHT22;15592;53.656;7.276;2024-01-11T04:10:22;-1.10;99.90
28336;DHT22;15592;53.656;7.276;2024-01-11T04:12:47;-1.10;99.90
28336;DHT22;15592;53.656;7.276;2024-01-11T04:15:13;-1.10;99.90
28336;DHT22;15592;53.656;7.276;2024-01-11T04:17:39;-1.10;99.90
28336;DHT22;15592;53.656;7.276;2024-01-11T04:20:06;-1.10;99.90
28336;DHT22;15592;53.656;7.276;2024-01-11T04:22:32;-1.00;99.90
28336;DHT22;15592;53.656;7.276;2024-01-11T04:24:57;-1.00;99.90
28336;DHT22;15592;53.656;7.276;2024-01-11T04:27:23;-1.00;99.90
28336;DHT22;15592;53.656;7.276;2024-01-11T04:29:48;-1.00;99.90
28336;DHT22;15592;53.656;7.276;2024-01-11T04:32:14;-1.00;99.90
28336;DHT22;15592;53.656;7.276;2024-01-11T04:34:39;-1.00;99.90
28336;DHT22;15592;53.656;7.276;2024-01-11T04:37:06;-0.90;99.90
28336;DHT22;15592;53.656;7.276;2024-01-11T04:39:31;-1.00;99.90
28336;DHT22;15592;53.656;7.276;2024-01-11T04:41:57;-0.90;99.90
28336;DHT22;15592;53.656;7.276;2024-01-11T04:44:23;-0.90;99.90
28336;DHT22;15592;53.656;7.276;2024-01-11T04:46:48;-0.90;99.90
28336;DHT22;15592;53.656;7.276;2024-01-11T04:49:14;-0.80;99.90
28336;DHT22;15592;53.656;7.276;2024-01-11T04:51:39;-0.80;99.90
28336;DHT22;15592;53.656;7.276;2024-01-11T04:54:05;-0.80;99.90
28336;DHT22;15592;53.656;7.276;2024-01-11T04:56:31;-0.70;99.90
28336;DHT22;15592;53.656;7.276;2024-01-11T04:58:56;-0.70;99.90
28336;DHT22;15592;53.656;7.276;2024-01-11T05:01:22;-0.60;99.90
28336;DHT22;15592;53.656;7.276;2024-01-11T05:03:49;-0.60;99.90
28336;DHT22;15592;53.656;7.276;2024-01-11T05:06:21;-0.60;99.90
28336;DHT22;15592;53.656;7.276;2024-01-11T05:08:49;-0.50;99.90
28336;DHT22;15592;53.656;7.276;2024-01-11T05:11:22;-0.50;99.90
28336;DHT22;15592;53.656;7.276;2024-01-11T05:13:50;-0.50;99.90
28336;DHT22;15592;53.656;7.276;2024-01-11T05:16:23;-0.50;99.90
28336;DHT22;15592;53.656;7.276;2024-01-11T05:18:50;-0.40;99.90
28336;DHT22;15592;53.656;7.276;2024-01-11T05:21:16;-0.40;99.90
28336;DHT22;15592;53.656;7.276;2024-01-11T05:23:41;-0.40;99.90
28336;DHT22;15592;53.656;7.276;2024-01-11T05:26:08;-0.40;99.90
28336;DHT22;15592;53.656;7.276;2024-01-11T05:28:34;-0.30;99.90
28336;DHT22;15592;53.656;7.276;2024-01-11T05:30:59;-0.30;99.90
28336;DHT22;15592;53.656;7.276;2024-01-11T05:33:25;-0.30;99.90
28336;DHT22;15592;53.656;7.276;2024-01-11T05:35:50;-0.30;99.90
28336;DHT22;15592;53.656;7.276;2024-01-11T05:38:16;-0.30;99.90
28336;DHT22;15592;53.656;7.276;2024-01-11T05:40:41;-0.20;99.90
28336;DHT22;15592;53.656;7.276;2024-01-11T05:43:07;-0.20;99.90
28336;DHT22;15592;53.656;7.276;2024-01-11T05:45:33;-0.20;99.90
28336;DHT22;15592;53.656;7.276;2024-01-11T05:47:59;-0.10;99.90
28336;DHT22;15592;53.656;7.276;2024-01-11T05:50:25;-0.10;99.90
28336;DHT22;15592;53.656;7.276;2024-01-11T05:52:52;-0.10;99.90
28336;DHT22;15592;53.656;7.276;2024-01-11T05:55:19;0.00;99.90
28336;DHT22;15592;53.656;7.276;2024-01-11T05:57:45;0.00;99.90
28336;DHT22;15592;53.656;7.276;2024-01-11T06:00:11;0.00;99.90
28336;DHT22;15592;53.656;7.276;2024-01-11T06:02:37;0.00;99.90
28336;DHT22;15592;53.656;7.276;2024-01-11T06:05:03;0.00;99.90
28336;DHT22;15592;53.656;7.276;2024-01-11T06:07:29;0.00;99.90
28336;DHT22;15592;53.656;7.276;2024-01-11T06:09:54;0.10;99.90
28336;DHT22;15592;53.656;7.276;2024-01-11T06:12:20;0.10;99.90
28336;DHT22;15592;53.656;7.276;2024-01-11T06:14:46;0.20;99.90
28336;DHT22;15592;53.656;7.276;2024-01-11T06:17:12;0.10;99.90
28336;DHT22;15592;53.656;7.276;2024-01-11T06:19:38;0.20;99.90
28336;DHT22;15592;53.656;7.276;2024-01-11T06:22:06;0.10;99.90
28336;DHT22;15592;53.656;7.276;2024-01-11T06:24:32;0.10;99.90
28336;DHT22;15592;53.656;7.276;2024-01-11T06:26:57;0.10;99.90
28336;DHT22;15592;53.656;7.276;2024-01-11T06:29:23;0.20;99.90
28336;DHT22;15592;53.656;7.276;2024-01-11T06:31:49;0.20;99.90
28336;DHT22;15592;53.656;7.276;2024-01-11T06:34:14;0.20;99.90
28336;DHT22;15592;53.656;7.276;2024-01-11T06:36:40;0.20;99.90
28336;DHT22;15592;53.656;7.276;2024-01-11T06:39:06;0.20;99.90
28336;DHT22;15592;53.656;7.276;2024-01-11T06:41:31;0.20;99.90
28336;DHT22;15592;53.656;7.276;2024-01-11T06:43:57;0.20;99.90
28336;DHT22;15592;53.656;7.276;2024-01-11T06:46:23;0.20;99.90
28336;DHT22;15592;53.656;7.276;2024-01-11T06:48:48;0.20;99.90
28336;DHT22;15592;53.656;7.276;2024-01-11T06:51:21;0.20;99.90
28336;DHT22;15592;53.656;7.276;2024-01-11T06:53:46;0.30;99.90
28336;DHT22;15592;53.656;7.276;2024-01-11T06:56:19;0.30;99.90
28336;DHT22;15592;53.656;7.276;2024-01-11T06:58:48;0.30;99.90
28336;DHT22;15592;53.656;7.276;2024-01-11T07:01:13;0.30;99.90
28336;DHT22;15592;53.656;7.276;2024-01-11T07:03:39;0.30;99.90
28336;DHT22;15592;53.656;7.276;2024-01-11T07:06:05;0.30;99.90
28336;DHT22;15592;53.656;7.276;2024-01-11T07:08:31;0.40;99.90
28336;DHT22;15592;53.656;7.276;2024-01-11T07:11:00;0.40;99.90
28336;DHT22;15592;53.656;7.276;2024-01-11T07:13:28;0.40;99.90
28336;DHT22;15592;53.656;7.276;2024-01-11T07:15:54;0.40;99.90
28336;DHT22;15592;53.656;7.276;2024-01-11T07:18:21;0.50;99.90
28336;DHT22;15592;53.656;7.276;2024-01-11T07:20:47;0.50;99.90
28336;DHT22;15592;53.656;7.276;2024-01-11T07:23:13;0.60;99.90
28336;DHT22;15592;53.656;7.276;2024-01-11T07:25:39;0.60;99.90
28336;DHT22;15592;53.656;7.276;2024-01-11T07:28:06;0.80;99.90
28336;DHT22;15592;53.656;7.276;2024-01-11T07:30:31;0.90;99.90
28336;DHT22;15592;53.656;7.276;2024-01-11T07:32:57;1.00;99.90
28336;DHT22;15592;53.656;7.276;2024-01-11T07:35:23;1.00;99.90
28336;DHT22;15592;53.656;7.276;2024-01-11T07:37:48;1.00;99.90
28336;DHT22;15592;53.656;7.276;2024-01-11T07:40:15;1.00;99.90
28336;DHT22;15592;53.656;7.276;2024-01-11T07:42:42;1.00;99.90
28336;DHT22;15592;53.656;7.276;2024-01-11T07:45:09;1.10;99.90
28336;DHT22;15592;53.656;7.276;2024-01-11T07:47:39;1.20;99.90
28336;DHT22;15592;53.656;7.276;2024-01-11T07:50:05;1.30;99.90
28336;DHT22;15592;53.656;7.276;2024-01-11T07:52:38;1.30;99.90
28336;DHT22;15592;53.656;7.276;2024-01-11T07:55:04;1.30;99.90
28336;DHT22;15592;53.656;7.276;2024-01-11T07:57:38;1.40;99.90
28336;DHT22;15592;53.656;7.276;2024-01-11T08:00:05;1.40;99.90
28336;DHT22;15592;53.656;7.276;2024-01-11T08:02:34;1.50;99.90
28336;DHT22;15592;53.656;7.276;2024-01-11T08:05:00;1.50;99.90
28336;DHT22;15592;53.656;7.276;2024-01-11T08:07:26;1.60;99.90
28336;DHT22;15592;53.656;7.276;2024-01-11T08:09:52;1.60;99.90
28336;DHT22;15592;53.656;7.276;2024-01-11T08:12:17;1.60;99.90
28336;DHT22;15592;53.656;7.276;2024-01-11T08:14:43;1.60;99.90
28336;DHT22;15592;53.656;7.276;2024-01-11T08:17:10;1.60;99.90
28336;DHT22;15592;53.656;7.276;2024-01-11T08:19:35;1.60;99.90
28336;DHT22;15592;53.656;7.276;2024-01-11T08:22:01;1.60;99.90
28336;DHT22;15592;53.656;7.276;2024-01-11T08:24:27;1.70;99.90
28336;DHT22;15592;53.656;7.276;2024-01-11T08:26:53;1.70;99.90
28336;DHT22;15592;53.656;7.276;2024-01-11T08:29:19;1.70;99.90
28336;DHT22;15592;53.656;7.276;2024-01-11T08:31:45;1.80;99.90
28336;DHT22;15592;53.656;7.276;2024-01-11T08:34:11;1.80;99.90
28336;DHT22;15592;53.656;7.276;2024-01-11T08:36:37;1.80;99.90
28336;DHT22;15592;53.656;7.276;2024-01-11T08:39:04;1.80;99.90
28336;DHT22;15592;53.656;7.276;2024-01-11T08:41:34;1.90;99.90
28336;DHT22;15592;53.656;7.276;2024-01-11T08:44:01;1.90;99.90
28336;DHT22;15592;53.656;7.276;2024-01-11T08:46:28;1.90;99.90
28336;DHT22;15592;53.656;7.276;2024-01-11T08:48:56;1.90;99.90
28336;DHT22;15592;53.656;7.276;2024-01-11T08:51:22;1.90;99.90
28336;DHT22;15592;53.656;7.276;2024-01-11T08:53:48;2.00;99.90
28336;DHT22;15592;53.656;7.276;2024-01-11T08:56:14;2.00;99.90
28336;DHT22;15592;53.656;7.276;2024-01-11T08:58:41;2.10;99.90
28336;DHT22;15592;53.656;7.276;2024-01-11T09:01:07;2.20;99.90
28336;DHT22;15592;53.656;7.276;2024-01-11T09:03:34;2.20;99.90
28336;DHT22;15592;53.656;7.276;2024-01-11T09:06:00;2.20;99.90
28336;DHT22;15592;53.656;7.276;2024-01-11T09:08:26;2.20;99.90
28336;DHT22;15592;53.656;7.276;2024-01-11T09:10:52;2.20;99.90
28336;DHT22;15592;53.656;7.276;2024-01-11T09:13:18;2.20;99.90
28336;DHT22;15592;53.656;7.276;2024-01-11T09:15:44;2.10;99.90
28336;DHT22;15592;53.656;7.276;2024-01-11T09:18:10;2.10;99.90
28336;DHT22;15592;53.656;7.276;2024-01-11T09:20:36;2.10;99.90
28336;DHT22;15592;53.656;7.276;2024-01-11T09:23:01;2.10;99.90
28336;DHT22;15592;53.656;7.276;2024-01-11T09:25:32;2.10;99.90
28336;DHT22;15592;53.656;7.276;2024-01-11T09:27:58;2.10;99.90
28336;DHT22;15592;53.656;7.276;2024-01-11T09:30:23;2.10;99.90
28336;DHT22;15592;53.656;7.276;2024-01-11T09:32:49;2.10;99.90
28336;DHT22;15592;53.656;7.276;2024-01-11T09:35:14;2.10;99.90
28336;DHT22;15592;53.656;7.276;2024-01-11T09:37:40;2.10;99.90
28336;DHT22;15592;53.656;7.276;2024-01-11T09:40:06;2.10;99.90
28336;DHT22;15592;53.656;7.276;2024-01-11T09:42:39;2.10;99.90
28336;DHT22;15592;53.656;7.276;2024-01-11T09:45:10;2.10;99.90
28336;DHT22;15592;53.656;7.276;2024-01-11T09:47:38;2.10;99.90
28336;DHT22;15592;53.656;7.276;2024-01-11T09:50:06;2.20;99.90
28336;DHT22;15592;53.656;7.276;2024-01-11T09:52:32;2.20;99.90
28336;DHT22;15592;53.656;7.276;2024-01-11T09:54:59;2.30;99.90
28336;DHT22;15592;53.656;7.276;2024-01-11T09:57:29;2.30;99.90
28336;DHT22;15592;53.656;7.276;2024-01-11T09:59:56;2.40;99.90
28336;DHT22;15592;53.656;7.276;2024-01-11T10:02:23;2.40;99.90
28336;DHT22;15592;53.656;7.276;2024-01-11T10:04:50;2.40;99.90
28336;DHT22;15592;53.656;7.276;2024-01-11T10:07:19;2.40;99.90
28336;DHT22;15592;53.656;7.276;2024-01-11T10:09:47;2.40;99.90
28336;DHT22;15592;53.656;7.276;2024-01-11T10:12:13;2.40;99.90
28336;DHT22;15592;53.656;7.276;2024-01-11T10:14:38;2.40;99.90
28336;DHT22;15592;53.656;7.276;2024-01-11T10:17:04;2.50;99.90
28336;DHT22;15592;53.656;7.276;2024-01-11T10:19:30;2.50;99.90
28336;DHT22;15592;53.656;7.276;2024-01-11T10:21:57;2.50;99.90
28336;DHT22;15592;53.656;7.276;2024-01-11T10:24:24;2.50;99.90
28336;DHT22;15592;53.656;7.276;2024-01-11T10:26:57;2.50;99.90
28336;DHT22;15592;53.656;7.276;2024-01-11T10:29:33;2.50;99.90
28336;DHT22;15592;53.656;7.276;2024-01-11T10:31:59;2.50;99.90
28336;DHT22;15592;53.656;7.276;2024-01-11T10:34:25;2.50;99.90
28336;DHT22;15592;53.656;7.276;2024-01-11T10:36:51;2.50;99.90
28336;DHT22;15592;53.656;7.276;2024-01-11T10:39:17;2.50;99.90
28336;DHT22;15592;53.656;7.276;2024-01-11T10:41:47;2.60;99.90
28336;DHT22;15592;53.656;7.276;2024-01-11T10:44:20;2.60;99.90
28336;DHT22;15592;53.656;7.276;2024-01-11T10:46:49;2.60;99.90
28336;DHT22;15592;53.656;7.276;2024-01-11T10:49:17;2.70;99.90
28336;DHT22;15592;53.656;7.276;2024-01-11T10:52:02;2.80;99.90
28336;DHT22;15592;53.656;7.276;2024-01-11T10:54:29;2.80;99.90
28336;DHT22;15592;53.656;7.276;2024-01-11T10:56:56;2.80;99.90
28336;DHT22;15592;53.656;7.276;2024-01-11T10:59:25;2.90;99.90
28336;DHT22;15592;53.656;7.276;2024-01-11T11:01:57;3.00;99.90
28336;DHT22;15592;53.656;7.276;2024-01-11T11:04:24;3.10;99.90
28336;DHT22;15592;53.656;7.276;2024-01-11T11:06:55;3.10;99.90
28336;DHT22;15592;53.656;7.276;2024-01-11T11:09:25;3.10;99.90
28336;DHT22;15592;53.656;7.276;2024-01-11T11:11:54;3.10;99.90
28336;DHT22;15592;53.656;7.276;2024-01-11T11:14:22;3.10;99.90
28336;DHT22;15592;53.656;7.276;2024-01-11T11:16:48;3.10;99.90
28336;DHT22;15592;53.656;7.276;2024-01-11T11:19:14;3.00;99.90
28336;DHT22;15592;53.656;7.276;2024-01-11T11:21:44;3.00;99.90
28336;DHT22;15592;53.656;7.276;2024-01-11T11:24:13;3.00;99.90
28336;DHT22;15592;53.656;7.276;2024-01-11T11:26:38;3.10;99.90
28336;DHT22;15592;53.656;7.276;2024-01-11T11:29:04;3.00;99.90
28336;DHT22;15592;53.656;7.276;2024-01-11T11:31:44;3.00;99.90
28336;DHT22;15592;53.656;7.276;2024-01-11T11:34:19;3.10;99.90
28336;DHT22;15592;53.656;7.276;2024-01-11T11:36:46;3.10;99.90
28336;DHT22;15592;53.656;7.276;2024-01-11T11:39:13;3.10;99.90
28336;DHT22;15592;53.656;7.276;2024-01-11T11:41:39;3.10;99.90
28336;DHT22;15592;53.656;7.276;2024-01-11T11:44:06;3.10;99.90
28336;DHT22;15592;53.656;7.276;2024-01-11T11:46:32;3.20;99.90
28336;DHT22;15592;53.656;7.276;2024-01-11T11:48:58;3.20;99.90
28336;DHT22;15592;53.656;7.276;2024-01-11T11:51:25;3.20;99.90
28336;DHT22;15592;53.656;7.276;2024-01-11T11:53:52;3.30;99.90
28336;DHT22;15592;53.656;7.276;2024-01-11T11:56:19;3.30;99.90
